Time;durP1;ratioP1;P1;durP2;ratioP2;P2;SDS_P1;SDS_P2;PMS_P1;PMS_P2;Temp;Humidity;BMP_temperature;BMP_pressure;BME280_temperature;BME280_humidity;BME280_pressure;Samples;Min_cycle;Max_cycle;Signal;HPM_P1;HPM_P2
2023/07/14 00:01:21;;;;;;;8.20;3.60;;;16.60;99.90;;;;;;5012676;28;20048;-82
2023/07/14 00:03:48;;;;;;;5.75;3.03;;;16.60;99.90;;;;;;5020365;28;20084;-81
2023/07/14 00:06:14;;;;;;;5.38;2.63;;;16.50;99.90;;;;;;5018762;28;20129;-82
2023/07/14 00:08:40;;;;;;;6.10;3.22;;;16.50;99.90;;;;;;5025042;28;20037;-82
2023/07/14 00:11:21;;;;;;;6.97;2.88;;;16.40;99.90;;;;;;5026586;28;20563;-82
2023/07/14 00:13:50;;;;;;;4.35;3.30;;;16.40;99.90;;;;;;5027510;28;20398;-82
2023/07/14 00:16:19;;;;;;;5.28;3.15;;;16.40;99.90;;;;;;5028004;28;20555;-82
2023/07/14 00:18:46;;;;;;;5.22;3.40;;;16.40;99.90;;;;;;5027910;28;20045;-82
2023/07/14 00:21:17;;;;;;;7.07;3.08;;;16.40;99.90;;;;;;5027944;28;20060;-81
2023/07/14 00:23:44;;;;;;;6.82;3.13;;;16.40;99.90;;;;;;5026910;28;20541;-82
2023/07/14 00:26:19;;;;;;;5.35;2.90;;;16.40;99.90;;;;;;5028753;28;20041;-82
2023/07/14 00:28:49;;;;;;;4.63;3.40;;;16.30;99.90;;;;;;5026290;28;20095;-82
2023/07/14 00:31:19;;;;;;;7.63;3.30;;;16.30;99.90;;;;;;4992980;28;20029;-82
2023/07/14 00:33:49;;;;;;;7.97;4.07;;;16.20;99.90;;;;;;5023871;28;20038;-82
2023/07/14 00:36:16;;;;;;;6.10;3.80;;;16.20;99.90;;;;;;5027580;28;20123;-82
2023/07/14 00:38:42;;;;;;;6.30;3.65;;;16.20;99.90;;;;;;5021532;28;20111;-82
2023/07/14 00:41:17;;;;;;;8.80;4.25;;;16.20;99.90;;;;;;5027475;28;20045;-82
2023/07/14 00:43:43;;;;;;;5.22;4.00;;;16.20;99.90;;;;;;5021533;28;20045;-82
2023/07/14 00:46:37;;;;;;;7.40;3.55;;;16.20;99.90;;;;;;5028514;28;20049;-82
2023/07/14 00:49:24;;;;;;;6.40;3.78;;;16.20;99.90;;;;;;5022362;28;20057;-82
2023/07/14 00:51:51;;;;;;;8.35;4.18;;;16.10;99.90;;;;;;5026692;28;20460;-82
2023/07/14 00:54:29;;;;;;;7.28;5.05;;;16.10;99.90;;;;;;5026575;28;20044;-81
2023/07/14 00:56:55;;;;;;;6.65;4.97;;;16.10;99.90;;;;;;5022641;28;20088;-81
2023/07/14 00:59:34;;;;;;;8.30;4.95;;;16.10;99.90;;;;;;5026309;28;20045;-82
2023/07/14 01:02:11;;;;;;;9.52;4.97;;;16.10;99.90;;;;;;5027649;28;20045;-82
2023/07/14 01:04:51;;;;;;;10.73;5.78;;;16.10;99.90;;;;;;5025732;28;20052;-82
2023/07/14 01:07:19;;;;;;;8.30;5.38;;;16.10;99.90;;;;;;5026997;28;20045;-81
2023/07/14 01:09:46;;;;;;;10.40;5.20;;;16.10;99.90;;;;;;5014474;28;20535;-82
2023/07/14 01:12:15;;;;;;;10.02;5.38;;;16.10;99.90;;;;;;5010178;28;20056;-81
2023/07/14 01:14:48;;;;;;;9.52;6.45;;;16.10;99.90;;;;;;5041416;28;20049;-80
2023/07/14 01:17:23;;;;;;;11.05;6.03;;;16.10;99.90;;;;;;5018570;28;20191;-80
2023/07/14 01:19:59;;;;;;;6.65;6.05;;;16.00;99.90;;;;;;4999860;28;20053;-80
2023/07/14 01:22:44;;;;;;;8.95;6.90;;;16.00;99.90;;;;;;5015944;28;20045;-81
2023/07/14 01:25:14;;;;;;;9.77;6.38;;;16.00;99.90;;;;;;5008471;28;20140;-80
2023/07/14 01:27:40;;;;;;;11.95;7.15;;;15.90;99.90;;;;;;5023644;28;20041;-81
2023/07/14 01:30:06;;;;;;;7.15;5.82;;;15.90;99.90;;;;;;5037223;28;20034;-81
2023/07/14 01:32:39;;;;;;;8.82;6.82;;;15.90;99.90;;;;;;5029052;28;20152;-81
2023/07/14 01:35:07;;;;;;;10.52;6.28;;;15.90;99.90;;;;;;5026014;28;20084;-81
2023/07/14 01:37:39;;;;;;;7.32;5.80;;;15.90;99.90;;;;;;5023562;28;20178;-81
2023/07/14 01:40:13;;;;;;;9.25;6.68;;;15.90;99.90;;;;;;5016804;28;20140;-81
2023/07/14 01:42:42;;;;;;;10.50;7.18;;;15.80;99.90;;;;;;5004401;28;20050;-80
2023/07/14 01:45:16;;;;;;;10.80;6.30;;;15.90;99.90;;;;;;4996182;28;20045;-81
2023/07/14 01:47:46;;;;;;;9.05;6.32;;;15.90;99.90;;;;;;5017878;28;20103;-80
2023/07/14 01:50:25;;;;;;;9.30;7.03;;;15.80;99.90;;;;;;5024734;28;20108;-80
2023/07/14 01:52:55;;;;;;;10.48;6.47;;;15.80;99.90;;;;;;5018163;28;20606;-80
2023/07/14 01:55:23;;;;;;;8.15;6.75;;;15.80;99.90;;;;;;5024372;28;20046;-81
2023/07/14 01:57:54;;;;;;;10.45;6.35;;;15.80;99.90;;;;;;5023904;28;20136;-81
2023/07/14 02:00:20;;;;;;;8.82;6.13;;;15.70;99.90;;;;;;5002295;28;20045;-81
2023/07/14 02:02:48;;;;;;;9.52;6.78;;;15.70;99.90;;;;;;5024796;28;20044;-80
2023/07/14 02:05:14;;;;;;;11.82;6.55;;;15.70;99.90;;;;;;5010942;28;20045;-80
2023/07/14 02:07:40;;;;;;;10.77;6.38;;;15.70;99.90;;;;;;5025290;28;20559;-80
2023/07/14 02:10:15;;;;;;;9.63;6.70;;;15.70;99.90;;;;;;5030385;28;20473;-80
2023/07/14 02:12:46;;;;;;;7.97;6.22;;;15.70;99.90;;;;;;5028480;28;20426;-81
2023/07/14 02:15:17;;;;;;;7.22;6.45;;;15.70;99.90;;;;;;5029143;28;20043;-80
2023/07/14 02:17:44;;;;;;;10.35;6.80;;;15.60;99.90;;;;;;5004071;28;20045;-80
2023/07/14 02:20:20;;;;;;;10.40;6.60;;;15.60;99.90;;;;;;5014612;28;20137;-81
2023/07/14 02:22:48;;;;;;;11.80;6.95;;;15.60;99.90;;;;;;5004854;28;20092;-81
2023/07/14 02:25:17;;;;;;;10.82;6.90;;;15.60;99.90;;;;;;5028269;28;20075;-80
2023/07/14 02:27:44;;;;;;;9.25;6.70;;;15.60;99.90;;;;;;5028262;28;20076;-81
2023/07/14 02:30:26;;;;;;;11.68;6.90;;;15.60;99.90;;;;;;5029382;28;20448;-81
2023/07/14 02:33:07;;;;;;;8.95;6.25;;;15.60;99.90;;;;;;5019608;28;20097;-81
2023/07/14 02:35:53;;;;;;;9.23;7.03;;;15.60;99.90;;;;;;5028924;28;20053;-80
2023/07/14 02:38:18;;;;;;;9.27;7.10;;;15.50;99.90;;;;;;5024740;28;20457;-80
2023/07/14 02:40:44;;;;;;;8.05;6.45;;;15.60;99.90;;;;;;5029316;28;20075;-81
2023/07/14 02:43:13;;;;;;;9.80;6.78;;;15.50;99.90;;;;;;5024093;28;20053;-81
2023/07/14 02:45:55;;;;;;;7.97;6.90;;;15.50;99.90;;;;;;5028164;28;20056;-81
2023/07/14 02:48:33;;;;;;;9.65;7.07;;;15.50;99.90;;;;;;5028859;28;20049;-81
2023/07/14 02:50:58;;;;;;;9.73;7.43;;;15.50;99.90;;;;;;5019245;28;20103;-81
2023/07/14 02:53:24;;;;;;;10.25;6.82;;;15.50;99.90;;;;;;5027298;28;20049;-81
2023/07/14 02:55:50;;;;;;;13.55;6.95;;;15.40;99.90;;;;;;5027121;28;20073;-81
2023/07/14 02:58:17;;;;;;;9.13;7.10;;;15.40;99.90;;;;;;5028502;28;20440;-81
2023/07/14 03:00:43;;;;;;;9.20;7.38;;;15.40;99.90;;;;;;5028857;28;20037;-81
2023/07/14 03:03:09;;;;;;;10.05;7.63;;;15.40;99.90;;;;;;5028302;28;20045;-81
2023/07/14 03:05:35;;;;;;;13.93;7.40;;;15.40;99.90;;;;;;5029677;28;20555;-81
2023/07/14 03:08:01;;;;;;;8.50;7.15;;;15.40;99.90;;;;;;5037757;28;20051;-81
2023/07/14 03:10:27;;;;;;;10.80;7.53;;;15.40;99.90;;;;;;5037623;28;20038;-81
2023/07/14 03:12:53;;;;;;;9.25;7.13;;;15.40;99.90;;;;;;5029705;28;20037;-81
2023/07/14 03:15:20;;;;;;;7.20;6.60;;;15.10;99.90;;;;;;5029103;28;20037;-82
2023/07/14 03:17:46;;;;;;;11.95;6.93;;;15.40;99.90;;;;;;5021291;28;20559;-81
2023/07/14 03:20:14;;;;;;;9.18;6.63;;;15.30;99.90;;;;;;5010671;28;20214;-81
2023/07/14 03:22:39;;;;;;;10.93;7.03;;;15.40;99.90;;;;;;5028291;28;21539;-82
2023/07/14 03:25:06;;;;;;;14.43;7.18;;;15.30;99.90;;;;;;5027357;28;20413;-81
2023/07/14 03:27:32;;;;;;;8.93;6.25;;;15.30;99.90;;;;;;5020901;28;20057;-81
2023/07/14 03:29:58;;;;;;;9.05;7.25;;;15.30;99.90;;;;;;5023715;28;20045;-81
2023/07/14 03:32:23;;;;;;;12.02;7.30;;;15.30;99.90;;;;;;5027582;28;20037;-81
2023/07/14 03:34:49;;;;;;;8.02;7.25;;;15.30;99.90;;;;;;5027370;28;20509;-81
2023/07/14 03:37:15;;;;;;;9.63;6.88;;;15.30;99.90;;;;;;5029299;28;20033;-82
2023/07/14 03:39:41;;;;;;;10.68;7.07;;;15.30;99.90;;;;;;5020137;28;20490;-81
2023/07/14 03:42:07;;;;;;;9.43;6.65;;;15.20;99.90;;;;;;5028202;28;20037;-81
2023/07/14 03:44:32;;;;;;;12.10;6.40;;;15.20;99.90;;;;;;5027899;28;20056;-81
2023/07/14 03:46:59;;;;;;;9.20;5.72;;;15.20;99.90;;;;;;5024029;28;20046;-81
2023/07/14 03:49:25;;;;;;;10.50;6.10;;;15.20;99.90;;;;;;5018373;28;20041;-81
2023/07/14 03:51:52;;;;;;;9.38;6.90;;;15.20;99.90;;;;;;4996947;28;20488;-81
2023/07/14 03:54:17;;;;;;;9.02;6.50;;;15.20;99.90;;;;;;5024434;28;20107;-81
2023/07/14 03:56:44;;;;;;;9.32;5.65;;;15.20;99.90;;;;;;5027377;28;20521;-81
2023/07/14 03:59:10;;;;;;;10.07;6.30;;;15.20;99.90;;;;;;5033751;28;20042;-81
2023/07/14 04:01:36;;;;;;;9.48;6.55;;;14.60;99.90;;;;;;5027134;28;20045;-81
2023/07/14 04:04:02;;;;;;;8.35;6.50;;;15.20;99.90;;;;;;5008593;28;20123;-82
2023/07/14 04:06:28;;;;;;;8.23;6.65;;;15.10;99.90;;;;;;5027584;28;20436;-81
2023/07/14 04:08:58;;;;;;;7.47;5.65;;;15.10;99.90;;;;;;5028771;28;20025;-81
2023/07/14 04:11:24;;;;;;;10.05;5.88;;;15.10;99.90;;;;;;5003692;28;20323;-81
2023/07/14 04:13:49;;;;;;;9.88;6.63;;;15.20;99.90;;;;;;5026078;28;20095;-81
2023/07/14 04:16:15;;;;;;;9.82;6.40;;;15.10;99.90;;;;;;5028395;28;20042;-81
2023/07/14 04:18:41;;;;;;;8.65;5.78;;;15.20;99.90;;;;;;5010973;28;20422;-81
2023/07/14 04:21:12;;;;;;;7.63;5.55;;;15.10;99.90;;;;;;5026577;28;20056;-81
2023/07/14 04:23:39;;;;;;;10.05;5.60;;;15.20;99.90;;;;;;5032627;28;20041;-81
2023/07/14 04:26:07;;;;;;;8.88;5.35;;;15.10;99.90;;;;;;5027182;28;20103;-81
2023/07/14 04:28:35;;;;;;;9.88;5.85;;;16.20;99.90;;;;;;5031661;28;20052;-81
2023/07/14 04:31:01;;;;;;;7.85;5.63;;;15.10;99.90;;;;;;5028840;28;20060;-82
2023/07/14 04:33:27;;;;;;;12.63;5.95;;;15.10;99.90;;;;;;5030393;28;20048;-81
2023/07/14 04:35:54;;;;;;;9.85;5.25;;;15.10;99.90;;;;;;5045000;28;20168;-81
2023/07/14 04:38:22;;;;;;;8.40;4.88;;;15.10;99.90;;;;;;4997688;28;20485;-81
2023/07/14 04:40:48;;;;;;;6.03;5.00;;;15.10;99.90;;;;;;5025274;28;20038;-81
2023/07/14 04:43:14;;;;;;;9.80;6.00;;;15.10;99.90;;;;;;5026081;28;20064;-81
2023/07/14 04:45:42;;;;;;;10.90;5.38;;;15.10;99.90;;;;;;5034479;28;20373;-81
2023/07/14 04:48:12;;;;;;;7.55;5.10;;;15.10;99.90;;;;;;5035654;28;20046;-81
2023/07/14 04:50:38;;;;;;;10.95;5.28;;;15.10;99.90;;;;;;5039153;28;20049;-81
2023/07/14 04:53:07;;;;;;;9.77;4.57;;;15.10;99.90;;;;;;5023958;28;20049;-80
2023/07/14 04:55:37;;;;;;;8.80;4.82;;;15.10;99.90;;;;;;5029552;28;20033;-81
2023/07/14 04:58:04;;;;;;;8.88;4.72;;;15.10;99.90;;;;;;5032227;28;20046;-81
2023/07/14 05:00:31;;;;;;;8.60;4.57;;;15.10;99.90;;;;;;5013728;28;20504;-81
2023/07/14 05:02:57;;;;;;;11.85;4.85;;;15.10;99.90;;;;;;5036630;28;20091;-80
2023/07/14 05:05:24;;;;;;;7.95;3.97;;;15.20;99.90;;;;;;5034758;28;20042;-82
2023/07/14 05:07:52;;;;;;;5.10;4.20;;;15.10;99.90;;;;;;5035136;28;20052;-80
2023/07/14 05:10:20;;;;;;;9.95;3.92;;;15.20;99.90;;;;;;5036062;28;20049;-80
2023/07/14 05:12:49;;;;;;;6.88;4.05;;;15.20;99.90;;;;;;5018420;28;20180;-81
2023/07/14 05:15:15;;;;;;;7.53;3.60;;;15.20;99.90;;;;;;5031189;28;20050;-81
2023/07/14 05:17:44;;;;;;;8.52;3.88;;;15.20;99.90;;;;;;5030947;28;20559;-80
2023/07/14 05:20:10;;;;;;;10.50;3.97;;;15.20;99.90;;;;;;5014025;28;20048;-80
2023/07/14 05:22:41;;;;;;;8.73;4.40;;;15.30;99.90;;;;;;5032994;28;20143;-80
2023/07/14 05:25:07;;;;;;;8.75;3.83;;;15.30;99.90;;;;;;5026495;28;20039;-82
2023/07/14 05:27:36;;;;;;;8.88;4.88;;;15.30;99.90;;;;;;5023685;28;20093;-87
2023/07/14 05:30:03;;;;;;;8.55;3.38;;;15.30;99.90;;;;;;5006534;28;20063;-86
2023/07/14 05:32:39;;;;;;;8.90;3.78;;;15.30;99.90;;;;;;5011421;28;20371;-85
2023/07/14 05:35:06;;;;;;;9.88;4.78;;;15.40;99.90;;;;;;5017386;28;20041;-86
2023/07/14 05:37:32;;;;;;;6.65;3.17;;;15.40;99.90;;;;;;5034780;28;20504;-82
2023/07/14 05:39:58;;;;;;;5.80;3.33;;;15.40;99.90;;;;;;5026989;28;20053;-83
2023/07/14 05:42:23;;;;;;;8.88;3.85;;;15.50;99.90;;;;;;5008778;28;20626;-79
2023/07/14 05:44:49;;;;;;;10.18;4.30;;;15.50;99.90;;;;;;5021251;28;20123;-80
2023/07/14 05:47:15;;;;;;;9.80;4.00;;;15.50;99.90;;;;;;5024624;28;20370;-80
2023/07/14 05:49:41;;;;;;;10.50;4.53;;;15.50;99.90;;;;;;5006949;28;20064;-82
2023/07/14 05:52:09;;;;;;;6.82;4.03;;;15.50;99.90;;;;;;5028785;28;20485;-84
2023/07/14 05:54:35;;;;;;;9.15;3.33;;;15.60;99.90;;;;;;4679554;28;10000550;-85
2023/07/14 05:57:01;;;;;;;7.60;3.80;;;15.60;99.90;;;;;;5029471;28;20034;-84
2023/07/14 05:59:27;;;;;;;11.85;3.90;;;15.70;99.90;;;;;;5022244;28;20539;-83
2023/07/14 06:01:53;;;;;;;7.80;4.22;;;15.70;99.90;;;;;;5027382;28;20453;-83
2023/07/14 06:04:19;;;;;;;16.33;9.10;;;15.80;99.90;;;;;;5013302;28;20076;-84
2023/07/14 06:06:45;;;;;;;12.65;4.55;;;15.80;99.90;;;;;;5008896;28;20034;-84
2023/07/14 06:09:13;;;;;;;10.95;4.28;;;15.90;99.90;;;;;;5028280;28;20042;-83
2023/07/14 06:11:40;;;;;;;10.18;3.83;;;15.90;99.90;;;;;;5027014;28;20512;-83
2023/07/14 06:14:05;;;;;;;8.98;4.30;;;16.00;99.90;;;;;;5010297;28;20519;-83
2023/07/14 06:16:31;;;;;;;5.55;3.60;;;16.00;99.90;;;;;;5006209;28;20053;-83
2023/07/14 06:19:00;;;;;;;6.82;3.88;;;16.10;99.90;;;;;;5010727;28;20052;-83
2023/07/14 06:21:25;;;;;;;10.30;4.38;;;16.10;99.90;;;;;;5026999;28;20481;-83
2023/07/14 06:23:51;;;;;;;8.52;4.38;;;16.10;99.90;;;;;;5028478;28;20072;-84
2023/07/14 06:26:17;;;;;;;8.45;3.75;;;16.10;99.90;;;;;;5027923;28;20049;-83
2023/07/14 06:28:43;;;;;;;9.65;4.35;;;16.20;99.90;;;;;;5018010;28;20076;-84
2023/07/14 06:31:11;;;;;;;8.57;4.50;;;16.30;99.90;;;;;;5027799;28;20042;-83
2023/07/14 06:33:37;;;;;;;8.68;3.90;;;16.30;99.90;;;;;;5023748;28;20570;-83
2023/07/14 06:36:04;;;;;;;13.85;4.40;;;16.40;99.90;;;;;;5009427;28;20045;-83
2023/07/14 06:38:30;;;;;;;8.73;3.80;;;16.40;99.90;;;;;;5028724;28;20053;-82
2023/07/14 06:41:02;;;;;;;11.75;4.07;;;16.50;99.90;;;;;;5026292;28;20489;-83
2023/07/14 06:43:30;;;;;;;11.48;4.07;;;16.50;99.90;;;;;;5027433;28;20049;-82
2023/07/14 06:45:56;;;;;;;9.38;3.75;;;16.60;99.90;;;;;;5027609;28;20033;-84
2023/07/14 06:48:23;;;;;;;11.35;3.70;;;16.60;99.90;;;;;;5005650;28;20500;-84
2023/07/14 06:50:49;;;;;;;4.45;3.58;;;16.70;99.90;;;;;;5028237;28;20432;-84
2023/07/14 06:53:15;;;;;;;11.30;3.92;;;16.70;99.90;;;;;;5027224;28;20083;-84
2023/07/14 06:55:43;;;;;;;11.65;3.30;;;16.80;99.90;;;;;;5026109;28;20037;-80
2023/07/14 06:58:09;;;;;;;5.95;3.08;;;16.90;99.90;;;;;;5022985;28;20049;-80
2023/07/14 07:00:36;;;;;;;6.05;3.60;;;16.90;99.90;;;;;;5028029;28;20400;-80
2023/07/14 07:03:03;;;;;;;4.88;3.00;;;17.00;99.90;;;;;;5027558;28;20056;-80
2023/07/14 07:05:29;;;;;;;9.70;3.35;;;17.00;99.90;;;;;;5009687;28;20570;-80
2023/07/14 07:07:55;;;;;;;6.53;3.40;;;17.00;99.90;;;;;;5028911;28;20096;-80
2023/07/14 07:10:21;;;;;;;7.25;3.55;;;17.10;99.90;;;;;;5026628;28;20033;-80
2023/07/14 07:12:47;;;;;;;5.63;3.13;;;17.20;99.90;;;;;;5028487;28;20033;-80
2023/07/14 07:15:13;;;;;;;6.95;3.58;;;17.30;99.90;;;;;;5028602;28;20042;-80
2023/07/14 07:17:41;;;;;;;8.18;3.50;;;17.30;99.90;;;;;;5026902;28;20037;-80
2023/07/14 07:20:08;;;;;;;8.40;3.90;;;17.40;99.90;;;;;;5010427;28;20045;-80
2023/07/14 07:22:36;;;;;;;9.07;3.90;;;17.40;99.90;;;;;;5026549;28;20129;-80
2023/07/14 07:25:02;;;;;;;7.38;3.85;;;17.50;99.90;;;;;;5025612;28;20561;-80
2023/07/14 07:27:28;;;;;;;8.07;4.20;;;17.50;99.90;;;;;;5025864;28;20033;-81
2023/07/14 07:29:54;;;;;;;9.55;3.95;;;17.60;99.90;;;;;;5022729;28;20034;-79
2023/07/14 07:32:19;;;;;;;9.98;4.32;;;17.60;99.90;;;;;;5024624;28;20120;-78
2023/07/14 07:34:45;;;;;;;10.30;4.60;;;17.70;99.90;;;;;;4999580;28;20128;-78
2023/07/14 07:37:11;;;;;;;10.00;4.75;;;17.70;99.90;;;;;;5004431;28;20056;-78
2023/07/14 07:39:37;;;;;;;6.32;3.95;;;17.70;99.90;;;;;;5020774;28;20076;-78
2023/07/14 07:42:04;;;;;;;9.98;4.85;;;17.80;99.90;;;;;;5025899;28;20045;-79
2023/07/14 07:44:31;;;;;;;11.60;4.40;;;17.80;99.90;;;;;;5020113;28;20080;-79
2023/07/14 07:46:56;;;;;;;5.63;4.63;;;17.90;99.90;;;;;;5023322;28;20493;-78
2023/07/14 07:49:22;;;;;;;9.57;4.43;;;17.90;99.90;;;;;;5018873;28;20046;-78
2023/07/14 07:51:48;;;;;;;10.43;5.20;;;18.00;99.90;;;;;;5025830;28;20552;-78
2023/07/14 07:54:14;;;;;;;5.53;3.20;;;18.00;99.90;;;;;;5017297;28;20045;-77
2023/07/14 07:56:42;;;;;;;7.65;4.00;;;18.00;99.90;;;;;;5027142;28;20077;-77
2023/07/14 07:59:11;;;;;;;8.40;4.68;;;18.10;99.90;;;;;;5027492;28;20527;-79
2023/07/14 08:01:37;;;;;;;7.70;3.45;;;18.10;99.90;;;;;;5024064;28;20099;-78
2023/07/14 08:04:04;;;;;;;6.97;3.45;;;18.10;99.90;;;;;;5022165;28;20058;-78
2023/07/14 08:06:30;;;;;;;7.90;3.28;;;18.20;99.90;;;;;;5029911;28;20044;-78
2023/07/14 08:08:56;;;;;;;5.90;2.97;;;18.20;99.90;;;;;;5031960;28;20049;-78
2023/07/14 08:11:22;;;;;;;4.70;2.92;;;18.20;99.90;;;;;;5025568;28;20389;-78
2023/07/14 08:13:47;;;;;;;7.75;3.63;;;18.30;99.90;;;;;;5025153;28;20593;-78
2023/07/14 08:16:13;;;;;;;6.18;3.58;;;18.30;99.90;;;;;;5023325;28;20041;-78
2023/07/14 08:18:39;;;;;;;5.22;2.63;;;18.40;99.90;;;;;;5025849;28;20674;-78
2023/07/14 08:21:08;;;;;;;6.60;3.00;;;18.40;99.90;;;;;;5024393;28;20060;-78
2023/07/14 08:23:36;;;;;;;7.72;3.10;;;18.40;99.90;;;;;;5007194;28;20060;-78
2023/07/14 08:26:04;;;;;;;5.18;2.95;;;18.50;99.90;;;;;;5024369;28;20677;-78
2023/07/14 08:28:31;;;;;;;5.25;2.90;;;18.50;99.90;;;;;;5024855;28;20038;-78
2023/07/14 08:31:00;;;;;;;6.78;3.22;;;18.60;99.90;;;;;;5011613;28;20053;-78
2023/07/14 08:33:26;;;;;;;8.45;2.72;;;18.70;99.90;;;;;;5029545;28;20052;-78
2023/07/14 08:35:53;;;;;;;3.70;2.28;;;18.70;99.90;;;;;;5030202;28;20033;-79
2023/07/14 08:38:19;;;;;;;3.85;2.25;;;18.80;99.90;;;;;;5030738;28;20049;-78
2023/07/14 08:41:15;;;;;;;4.70;2.08;;;18.90;99.90;;;;;;5029603;28;20029;-78
2023/07/14 08:44:03;;;;;;;4.28;1.73;;;18.90;99.90;;;;;;5007687;28;20498;-78
2023/07/14 08:46:46;;;;;;;6.55;2.42;;;19.00;99.90;;;;;;5021193;28;20045;-78
2023/07/14 08:49:23;;;;;;;5.67;2.10;;;18.90;99.90;;;;;;5030260;28;20407;-78
2023/07/14 08:51:58;;;;;;;8.00;2.35;;;18.90;99.90;;;;;;5006536;28;20296;-78
2023/07/14 08:54:28;;;;;;;4.57;2.42;;;18.80;99.90;;;;;;5011348;28;20037;-78
2023/07/14 08:56:54;;;;;;;3.03;2.45;;;18.80;99.90;;;;;;5030618;28;20048;-78
2023/07/14 08:59:37;;;;;;;7.55;2.53;;;18.80;99.90;;;;;;5031431;28;20434;-77
2023/07/14 09:02:14;;;;;;;5.72;2.35;;;18.80;99.90;;;;;;5011017;28;20084;-77
2023/07/14 09:04:42;;;;;;;5.78;2.42;;;18.90;99.90;;;;;;5025786;28;20084;-78
2023/07/14 09:07:12;;;;;;;6.13;2.60;;;19.00;99.90;;;;;;5029131;28;20099;-79
2023/07/14 09:09:41;;;;;;;4.78;2.28;;;19.10;99.90;;;;;;5029586;28;20038;-81
2023/07/14 09:12:23;;;;;;;4.38;1.80;;;19.10;99.90;;;;;;5030691;28;20045;-81
2023/07/14 09:15:02;;;;;;;6.00;1.80;;;19.10;99.90;;;;;;5012580;28;20045;-81
2023/07/14 09:17:27;;;;;;;3.78;1.73;;;19.10;99.90;;;;;;5030207;28;20099;-81
2023/07/14 09:20:21;;;;;;;4.97;2.17;;;19.10;99.90;;;;;;5024982;28;20042;-83
2023/07/14 09:23:10;;;;;;;4.90;1.95;;;19.00;99.90;;;;;;5028877;28;20053;-85
2023/07/14 09:25:59;;;;;;;3.65;1.70;;;19.00;99.90;;;;;;5027278;28;20080;-81
2023/07/14 09:28:36;;;;;;;3.58;1.63;;;19.10;99.90;;;;;;5029946;28;20091;-82
2023/07/14 09:31:18;;;;;;;2.65;1.95;;;19.20;99.90;;;;;;5029869;28;20095;-81
2023/07/14 09:33:53;;;;;;;6.32;2.65;;;19.20;99.90;;;;;;5005579;28;20033;-80
2023/07/14 09:36:20;;;;;;;3.78;1.80;;;19.20;99.90;;;;;;5030120;28;20056;-81
2023/07/14 09:38:54;;;;;;;2.92;1.80;;;19.20;99.90;;;;;;5030870;28;20042;-80
2023/07/14 09:41:22;;;;;;;;;;;19.20;99.90;;;;;;5031039;28;20056;-80
2023/07/14 09:43:48;;;;;;;2.90;1.50;;;19.30;99.90;;;;;;5030628;28;19994;-81
2023/07/14 09:46:17;;;;;;;3.13;2.40;;;19.40;99.90;;;;;;5020752;28;20054;-81
2023/07/14 09:48:49;;;;;;;4.55;2.22;;;19.30;99.90;;;;;;5026047;28;20042;-84
2023/07/14 09:51:24;;;;;;;6.78;1.90;;;19.40;99.90;;;;;;5022809;28;20175;-81
2023/07/14 09:53:59;;;;;;;7.50;2.20;;;19.40;99.90;;;;;;5027785;28;20076;-82
2023/07/14 09:56:30;;;;;;;3.78;2.10;;;19.50;99.90;;;;;;5030827;28;20047;-83
2023/07/14 09:59:02;;;;;;;5.07;2.67;;;19.50;99.90;;;;;;5029247;28;20045;-84
2023/07/14 10:01:29;;;;;;;6.80;2.05;;;19.60;99.90;;;;;;5027186;28;20436;-84
2023/07/14 10:03:59;;;;;;;4.15;2.22;;;19.70;99.90;;;;;;5024280;28;20049;-81
2023/07/14 10:06:27;;;;;;;2.80;1.80;;;19.80;99.90;;;;;;5030085;28;20432;-83
2023/07/14 10:08:55;;;;;;;4.03;2.08;;;19.90;99.90;;;;;;5004943;28;20099;-83
2023/07/14 10:11:28;;;;;;;3.83;2.25;;;19.90;99.90;;;;;;5023979;28;20041;-83
2023/07/14 10:13:59;;;;;;;5.82;2.45;;;20.10;99.90;;;;;;5012719;28;20050;-84
2023/07/14 10:16:28;;;;;;;5.25;2.28;;;20.20;99.90;;;;;;5027434;28;20045;-84
2023/07/14 10:19:12;;;;;;;3.90;2.17;;;20.20;99.90;;;;;;5028794;28;20065;-83
2023/07/14 10:21:55;;;;;;;3.65;2.40;;;20.20;99.90;;;;;;5028710;28;20042;-77
2023/07/14 10:24:23;;;;;;;4.63;2.20;;;20.20;99.90;;;;;;5021018;28;20059;-80
2023/07/14 10:26:52;;;;;;;8.38;2.53;;;20.30;99.90;;;;;;5024927;28;20092;-79
2023/07/14 10:29:20;;;;;;;4.85;2.60;;;20.30;99.90;;;;;;5026393;28;20072;-78
2023/07/14 10:31:57;;;;;;;6.07;2.75;;;20.30;99.90;;;;;;5024491;28;20601;-78
2023/07/14 10:34:44;;;;;;;3.97;2.67;;;20.30;99.90;;;;;;5026449;28;20040;-77
2023/07/14 10:37:30;;;;;;;5.13;2.88;;;20.30;99.90;;;;;;5023073;28;20474;-79
2023/07/14 10:40:09;;;;;;;5.82;2.60;;;20.30;99.90;;;;;;5025643;28;20063;-79
2023/07/14 10:42:37;;;;;;;3.70;2.55;;;20.50;99.90;;;;;;5024743;28;20041;-77
2023/07/14 10:45:04;;;;;;;2.42;2.15;;;20.60;99.90;;;;;;5026052;28;20041;-78
2023/07/14 10:47:40;;;;;;;4.55;2.35;;;20.70;99.90;;;;;;5027108;28;20049;-76
2023/07/14 10:50:17;;;;;;;3.47;2.50;;;20.80;99.90;;;;;;5026793;28;20095;-80
2023/07/14 10:52:50;;;;;;;4.85;2.47;;;20.90;99.90;;;;;;5026223;28;20053;-79
2023/07/14 10:55:27;;;;;;;3.05;2.35;;;21.10;99.90;;;;;;5027868;28;20121;-81
2023/07/14 10:58:03;;;;;;;5.90;2.63;;;21.10;99.90;;;;;;5026419;28;20048;-80
2023/07/14 11:00:52;;;;;;;4.90;2.60;;;21.20;99.90;;;;;;5020455;28;20057;-80
2023/07/14 11:03:27;;;;;;;5.03;2.08;;;21.10;99.90;;;;;;5020919;28;20045;-80
2023/07/14 11:05:56;;;;;;;3.65;2.45;;;21.10;99.90;;;;;;5024558;28;20041;-79
2023/07/14 11:08:27;;;;;;;5.57;2.90;;;21.20;99.90;;;;;;5022401;28;20056;-80
2023/07/14 11:11:03;;;;;;;5.15;3.30;;;21.20;99.90;;;;;;5028775;28;20110;-79
2023/07/14 11:13:43;;;;;;;6.70;2.88;;;21.10;99.90;;;;;;5025537;28;20112;-80
2023/07/14 11:16:26;;;;;;;3.80;2.42;;;21.10;99.90;;;;;;5024014;28;20041;-80
2023/07/14 11:19:21;;;;;;;6.47;2.63;;;21.20;99.90;;;;;;5026368;28;20085;-80
2023/07/14 11:22:00;;;;;;;2.70;2.33;;;21.30;99.90;;;;;;5020953;28;20053;-80
2023/07/14 11:24:53;;;;;;;6.25;2.70;;;21.30;99.90;;;;;;5024330;28;20049;-80
2023/07/14 11:27:36;;;;;;;5.50;2.35;;;21.40;99.90;;;;;;5023643;28;20111;-80
2023/07/14 11:30:14;;;;;;;6.22;2.47;;;21.50;99.90;;;;;;5021879;28;20057;-80
2023/07/14 11:32:53;;;;;;;3.90;2.50;;;21.60;99.90;;;;;;5023911;28;20098;-79
2023/07/14 11:35:41;;;;;;;3.72;2.20;;;21.70;99.90;;;;;;5026524;28;20081;-79
2023/07/14 11:38:40;;;;;;;4.00;2.50;;;21.70;99.90;;;;;;5024501;28;20068;-79
2023/07/14 11:41:06;;;;;;;6.18;2.22;;;21.80;99.90;;;;;;5020458;28;20046;-79
2023/07/14 11:43:33;;;;;;;4.28;2.50;;;21.80;99.90;;;;;;5027244;28;20163;-79
2023/07/14 11:46:04;;;;;;;3.15;2.28;;;21.90;99.90;;;;;;5027856;28;20453;-79
2023/07/14 11:48:43;;;;;;;6.40;2.67;;;21.90;99.90;;;;;;5027774;28;20497;-80
2023/07/14 11:51:13;;;;;;;2.97;2.67;;;21.90;99.90;;;;;;5026522;28;20045;-79
2023/07/14 11:54:02;;;;;;;4.93;2.72;;;21.80;99.90;;;;;;5026771;28;20083;-79
2023/07/14 11:56:30;;;;;;;4.03;2.75;;;22.10;99.90;;;;;;5026135;28;20050;-79
2023/07/14 11:59:22;;;;;;;4.40;2.00;;;21.80;99.90;;;;;;5020905;28;20041;-78
2023/07/14 12:01:53;;;;;;;3.20;2.53;;;21.90;99.90;;;;;;5026748;28;20060;-79
2023/07/14 12:04:32;;;;;;;5.70;2.50;;;22.00;99.90;;;;;;5009278;28;20140;-80
2023/07/14 12:07:16;;;;;;;3.22;2.38;;;22.00;99.90;;;;;;5026816;28;20053;-79
2023/07/14 12:10:01;;;;;;;6.28;2.13;;;22.00;99.90;;;;;;5027272;28;20037;-81
2023/07/14 12:12:28;;;;;;;4.53;2.67;;;22.00;99.90;;;;;;5023486;28;20060;-81
2023/07/14 12:14:53;;;;;;;3.53;2.80;;;22.00;99.90;;;;;;5026767;28;20046;-82
2023/07/14 12:17:40;;;;;;;3.72;2.67;;;22.00;99.90;;;;;;5026601;28;20044;-80
2023/07/14 12:20:11;;;;;;;4.97;2.92;;;21.80;99.90;;;;;;5019062;28;20048;-84
2023/07/14 12:22:53;;;;;;;4.25;2.90;;;21.80;99.90;;;;;;5026631;28;20052;-83
2023/07/14 12:25:22;;;;;;;4.38;2.15;;;21.70;99.90;;;;;;5026994;28;20481;-79
2023/07/14 12:27:52;;;;;;;5.35;3.15;;;21.70;99.90;;;;;;5027555;28;20041;-84
2023/07/14 12:30:25;;;;;;;6.25;2.90;;;21.70;99.90;;;;;;5027349;28;20332;-79
2023/07/14 12:33:14;;;;;;;4.10;3.03;;;21.70;99.90;;;;;;5025675;28;20493;-84
2023/07/14 12:35:40;;;;;;;5.80;3.08;;;21.70;99.90;;;;;;5026192;28;20752;-83
2023/07/14 12:38:17;;;;;;;6.03;2.80;;;21.80;99.90;;;;;;5026111;28;20052;-83
2023/07/14 12:40:44;;;;;;;4.15;2.80;;;21.80;99.90;;;;;;5026774;28;20520;-79
2023/07/14 12:43:35;;;;;;;5.18;3.15;;;21.90;99.90;;;;;;5027205;28;20064;-79
2023/07/14 12:46:21;;;;;;;5.00;3.63;;;21.90;99.90;;;;;;5007832;28;20068;-80
2023/07/14 12:48:48;;;;;;;5.57;3.88;;;22.00;99.90;;;;;;5024780;28;20116;-79
2023/07/14 12:51:22;;;;;;;7.95;3.33;;;22.00;99.90;;;;;;5020655;28;20054;-78
2023/07/14 12:53:58;;;;;;;;;;;22.10;99.90;;;;;;5024123;28;20042;-83
2023/07/14 12:56:24;;;;;;;9.18;4.15;;;22.20;99.90;;;;;;5010333;28;20331;-77
2023/07/14 12:58:55;;;;;;;9.77;4.00;;;22.00;99.90;;;;;;5030166;28;20068;-85
2023/07/14 13:01:20;;;;;;;5.90;3.75;;;22.10;99.90;;;;;;5011884;28;20416;-85
2023/07/14 13:03:46;;;;;;;5.97;4.07;;;22.00;99.90;;;;;;5009857;28;20037;-82